sensor_id;sensor_type;location;lat;lon;timestamp;P1;durP1;ratioP1;P2;durP2;ratioP2
5285;SDS011;2665;53.112;7.358;2023-07-31T00:02:22;3.07;;;1.63;;
5285;SDS011;2665;53.112;7.358;2023-07-31T00:04:48;2.70;;;1.27;;
5285;SDS011;2665;53.112;7.358;2023-07-31T00:07:14;4.83;;;1.60;;
5285;SDS011;2665;53.112;7.358;2023-07-31T00:09:40;2.47;;;1.37;;
5285;SDS011;2665;53.112;7.358;2023-07-31T00:12:06;4.17;;;1.70;;
5285;SDS011;2665;53.112;7.358;2023-07-31T00:14:32;3.27;;;1.23;;
5285;SDS011;2665;53.112;7.358;2023-07-31T00:16:58;2.50;;;1.23;;
5285;SDS011;2665;53.112;7.358;2023-07-31T00:19:24;3.57;;;1.50;;
5285;SDS011;2665;53.112;7.358;2023-07-31T00:21:50;2.77;;;1.30;;
5285;SDS011;2665;53.112;7.358;2023-07-31T00:24:16;2.70;;;1.47;;
5285;SDS011;2665;53.112;7.358;2023-07-31T00:26:42;2.57;;;1.43;;
5285;SDS011;2665;53.112;7.358;2023-07-31T00:29:08;2.63;;;1.30;;
5285;SDS011;2665;53.112;7.358;2023-07-31T00:31:35;3.30;;;1.57;;
5285;SDS011;2665;53.112;7.358;2023-07-31T00:34:01;2.80;;;1.27;;
5285;SDS011;2665;53.112;7.358;2023-07-31T00:36:27;5.10;;;1.77;;
5285;SDS011;2665;53.112;7.358;2023-07-31T00:38:53;3.07;;;1.40;;
5285;SDS011;2665;53.112;7.358;2023-07-31T00:41:19;3.60;;;1.20;;
5285;SDS011;2665;53.112;7.358;2023-07-31T00:43:45;3.80;;;1.00;;
5285;SDS011;2665;53.112;7.358;2023-07-31T00:46:11;3.13;;;1.40;;
5285;SDS011;2665;53.112;7.358;2023-07-31T00:48:37;3.90;;;1.43;;
5285;SDS011;2665;53.112;7.358;2023-07-31T00:51:03;2.20;;;1.20;;
5285;SDS011;2665;53.112;7.358;2023-07-31T00:53:29;2.20;;;1.03;;
5285;SDS011;2665;53.112;7.358;2023-07-31T00:55:55;2.70;;;1.60;;
5285;SDS011;2665;53.112;7.358;2023-07-31T00:58:22;3.07;;;1.47;;
5285;SDS011;2665;53.112;7.358;2023-07-31T01:00:48;2.87;;;1.40;;
5285;SDS011;2665;53.112;7.358;2023-07-31T01:03:15;2.57;;;1.37;;
5285;SDS011;2665;53.112;7.358;2023-07-31T01:11:17;2.53;;;1.43;;
5285;SDS011;2665;53.112;7.358;2023-07-31T01:13:22;2.10;;;1.20;;
5285;SDS011;2665;53.112;7.358;2023-07-31T01:15:49;3.80;;;1.30;;
5285;SDS011;2665;53.112;7.358;2023-07-31T01:18:15;2.93;;;1.40;;
5285;SDS011;2665;53.112;7.358;2023-07-31T01:20:41;2.37;;;1.47;;
5285;SDS011;2665;53.112;7.358;2023-07-31T01:26:00;2.63;;;1.50;;
5285;SDS011;2665;53.112;7.358;2023-07-31T01:31:11;2.53;;;1.60;;
5285;SDS011;2665;53.112;7.358;2023-07-31T01:33:38;4.03;;;1.60;;
5285;SDS011;2665;53.112;7.358;2023-07-31T01:36:05;2.90;;;1.40;;
5285;SDS011;2665;53.112;7.358;2023-07-31T01:38:31;2.80;;;1.40;;
5285;SDS011;2665;53.112;7.358;2023-07-31T01:40:57;3.73;;;1.50;;
5285;SDS011;2665;53.112;7.358;2023-07-31T01:43:23;5.50;;;1.47;;
5285;SDS011;2665;53.112;7.358;2023-07-31T01:45:49;1.97;;;1.17;;
5285;SDS011;2665;53.112;7.358;2023-07-31T01:48:15;2.80;;;1.47;;
5285;SDS011;2665;53.112;7.358;2023-07-31T01:50:41;2.37;;;1.40;;
5285;SDS011;2665;53.112;7.358;2023-07-31T01:53:07;3.10;;;1.37;;
5285;SDS011;2665;53.112;7.358;2023-07-31T01:55:34;2.90;;;1.80;;
5285;SDS011;2665;53.112;7.358;2023-07-31T01:58:00;3.10;;;1.47;;
5285;SDS011;2665;53.112;7.358;2023-07-31T02:00:26;2.70;;;1.90;;
5285;SDS011;2665;53.112;7.358;2023-07-31T02:02:52;2.57;;;1.50;;
5285;SDS011;2665;53.112;7.358;2023-07-31T02:05:18;2.30;;;1.27;;
5285;SDS011;2665;53.112;7.358;2023-07-31T02:07:44;3.27;;;1.50;;
5285;SDS011;2665;53.112;7.358;2023-07-31T02:10:10;4.20;;;1.40;;
5285;SDS011;2665;53.112;7.358;2023-07-31T02:12:36;2.00;;;1.00;;
5285;SDS011;2665;53.112;7.358;2023-07-31T02:15:02;2.67;;;1.50;;
5285;SDS011;2665;53.112;7.358;2023-07-31T02:17:28;2.60;;;1.30;;
5285;SDS011;2665;53.112;7.358;2023-07-31T02:19:54;2.40;;;1.23;;
5285;SDS011;2665;53.112;7.358;2023-07-31T02:22:20;2.40;;;1.30;;
5285;SDS011;2665;53.112;7.358;2023-07-31T02:24:46;2.20;;;1.30;;
5285;SDS011;2665;53.112;7.358;2023-07-31T02:27:12;2.80;;;1.17;;
5285;SDS011;2665;53.112;7.358;2023-07-31T02:29:38;2.20;;;1.07;;
5285;SDS011;2665;53.112;7.358;2023-07-31T02:32:04;2.77;;;1.73;;
5285;SDS011;2665;53.112;7.358;2023-07-31T02:34:31;1.90;;;1.00;;
5285;SDS011;2665;53.112;7.358;2023-07-31T02:36:57;2.43;;;1.10;;
5285;SDS011;2665;53.112;7.358;2023-07-31T02:39:23;2.30;;;1.40;;
5285;SDS011;2665;53.112;7.358;2023-07-31T02:41:49;3.00;;;1.50;;
5285;SDS011;2665;53.112;7.358;2023-07-31T02:44:15;6.70;;;1.33;;
5285;SDS011;2665;53.112;7.358;2023-07-31T02:46:41;2.17;;;1.20;;
5285;SDS011;2665;53.112;7.358;2023-07-31T02:49:07;3.20;;;1.20;;
5285;SDS011;2665;53.112;7.358;2023-07-31T02:51:33;2.40;;;1.20;;
5285;SDS011;2665;53.112;7.358;2023-07-31T02:53:59;2.27;;;1.00;;
5285;SDS011;2665;53.112;7.358;2023-07-31T02:56:25;2.67;;;1.40;;
5285;SDS011;2665;53.112;7.358;2023-07-31T02:58:51;2.20;;;1.03;;
5285;SDS011;2665;53.112;7.358;2023-07-31T03:01:17;1.93;;;0.90;;
5285;SDS011;2665;53.112;7.358;2023-07-31T03:03:43;1.90;;;0.70;;
5285;SDS011;2665;53.112;7.358;2023-07-31T03:06:09;1.90;;;1.00;;
5285;SDS011;2665;53.112;7.358;2023-07-31T03:08:35;1.70;;;0.70;;
5285;SDS011;2665;53.112;7.358;2023-07-31T03:11:01;7.40;;;1.00;;
5285;SDS011;2665;53.112;7.358;2023-07-31T03:13:27;2.40;;;1.00;;
5285;SDS011;2665;53.112;7.358;2023-07-31T03:15:53;1.93;;;0.80;;
5285;SDS011;2665;53.112;7.358;2023-07-31T03:18:19;3.43;;;1.33;;
5285;SDS011;2665;53.112;7.358;2023-07-31T03:20:45;2.37;;;0.90;;
5285;SDS011;2665;53.112;7.358;2023-07-31T03:23:11;1.80;;;0.70;;
5285;SDS011;2665;53.112;7.358;2023-07-31T03:25:37;1.70;;;0.73;;
5285;SDS011;2665;53.112;7.358;2023-07-31T03:28:03;1.87;;;0.83;;
5285;SDS011;2665;53.112;7.358;2023-07-31T03:30:29;1.90;;;0.70;;
5285;SDS011;2665;53.112;7.358;2023-07-31T03:32:56;1.60;;;0.60;;
5285;SDS011;2665;53.112;7.358;2023-07-31T03:35:22;1.63;;;0.60;;
5285;SDS011;2665;53.112;7.358;2023-07-31T03:37:48;3.50;;;0.60;;
5285;SDS011;2665;53.112;7.358;2023-07-31T03:40:14;1.70;;;0.63;;
5285;SDS011;2665;53.112;7.358;2023-07-31T03:42:40;1.60;;;0.60;;
5285;SDS011;2665;53.112;7.358;2023-07-31T03:45:06;1.60;;;0.60;;
5285;SDS011;2665;53.112;7.358;2023-07-31T03:47:32;1.80;;;0.80;;
5285;SDS011;2665;53.112;7.358;2023-07-31T03:49:58;1.80;;;0.70;;
5285;SDS011;2665;53.112;7.358;2023-07-31T03:52:25;1.70;;;0.60;;
5285;SDS011;2665;53.112;7.358;2023-07-31T03:54:51;2.10;;;0.97;;
5285;SDS011;2665;53.112;7.358;2023-07-31T03:57:17;1.77;;;0.80;;
5285;SDS011;2665;53.112;7.358;2023-07-31T03:59:43;4.23;;;1.00;;
5285;SDS011;2665;53.112;7.358;2023-07-31T04:02:09;2.40;;;1.10;;
5285;SDS011;2665;53.112;7.358;2023-07-31T04:04:35;2.57;;;1.23;;
5285;SDS011;2665;53.112;7.358;2023-07-31T04:07:01;3.70;;;0.90;;
5285;SDS011;2665;53.112;7.358;2023-07-31T04:09:27;2.00;;;1.00;;
5285;SDS011;2665;53.112;7.358;2023-07-31T04:11:53;2.10;;;1.00;;
5285;SDS011;2665;53.112;7.358;2023-07-31T04:14:19;1.93;;;0.97;;
5285;SDS011;2665;53.112;7.358;2023-07-31T04:16:45;2.10;;;1.10;;
5285;SDS011;2665;53.112;7.358;2023-07-31T04:19:11;2.60;;;1.33;;
5285;SDS011;2665;53.112;7.358;2023-07-31T04:21:41;2.83;;;1.03;;
5285;SDS011;2665;53.112;7.358;2023-07-31T04:24:07;2.57;;;1.30;;
5285;SDS011;2665;53.112;7.358;2023-07-31T04:26:33;2.87;;;1.07;;
5285;SDS011;2665;53.112;7.358;2023-07-31T04:28:59;3.10;;;1.47;;
5285;SDS011;2665;53.112;7.358;2023-07-31T04:31:25;2.00;;;1.23;;
5285;SDS011;2665;53.112;7.358;2023-07-31T04:33:51;3.53;;;1.40;;
5285;SDS011;2665;53.112;7.358;2023-07-31T04:36:17;2.47;;;1.67;;
5285;SDS011;2665;53.112;7.358;2023-07-31T04:38:43;2.30;;;1.43;;
5285;SDS011;2665;53.112;7.358;2023-07-31T04:41:09;2.03;;;1.30;;
5285;SDS011;2665;53.112;7.358;2023-07-31T04:43:35;3.20;;;1.47;;
5285;SDS011;2665;53.112;7.358;2023-07-31T04:46:04;5.13;;;1.40;;
5285;SDS011;2665;53.112;7.358;2023-07-31T04:48:30;2.37;;;1.30;;
5285;SDS011;2665;53.112;7.358;2023-07-31T04:50:56;2.73;;;1.27;;
5285;SDS011;2665;53.112;7.358;2023-07-31T04:53:22;2.03;;;1.20;;
5285;SDS011;2665;53.112;7.358;2023-07-31T04:55:48;2.33;;;1.30;;
5285;SDS011;2665;53.112;7.358;2023-07-31T04:58:14;2.20;;;1.30;;
5285;SDS011;2665;53.112;7.358;2023-07-31T05:00:40;1.90;;;0.90;;
5285;SDS011;2665;53.112;7.358;2023-07-31T05:03:06;1.83;;;0.83;;
5285;SDS011;2665;53.112;7.358;2023-07-31T05:05:32;1.87;;;0.87;;
5285;SDS011;2665;53.112;7.358;2023-07-31T05:07:58;2.57;;;1.27;;
5285;SDS011;2665;53.112;7.358;2023-07-31T05:10:24;2.37;;;1.10;;
5285;SDS011;2665;53.112;7.358;2023-07-31T05:12:50;1.80;;;0.90;;
5285;SDS011;2665;53.112;7.358;2023-07-31T05:15:16;2.13;;;1.13;;
5285;SDS011;2665;53.112;7.358;2023-07-31T05:17:42;2.00;;;1.00;;
5285;SDS011;2665;53.112;7.358;2023-07-31T05:20:08;2.00;;;1.20;;
5285;SDS011;2665;53.112;7.358;2023-07-31T05:22:34;2.10;;;1.13;;
5285;SDS011;2665;53.112;7.358;2023-07-31T05:25:00;2.07;;;1.27;;
5285;SDS011;2665;53.112;7.358;2023-07-31T05:27:26;1.90;;;1.00;;
5285;SDS011;2665;53.112;7.358;2023-07-31T05:29:53;1.80;;;0.93;;
5285;SDS011;2665;53.112;7.358;2023-07-31T05:32:19;2.00;;;1.10;;
5285;SDS011;2665;53.112;7.358;2023-07-31T05:34:45;2.10;;;1.00;;
5285;SDS011;2665;53.112;7.358;2023-07-31T05:37:11;1.90;;;1.00;;
5285;SDS011;2665;53.112;7.358;2023-07-31T05:39:37;1.93;;;0.97;;
5285;SDS011;2665;53.112;7.358;2023-07-31T05:42:03;3.87;;;1.00;;
5285;SDS011;2665;53.112;7.358;2023-07-31T05:44:29;2.53;;;1.17;;
5285;SDS011;2665;53.112;7.358;2023-07-31T05:46:55;2.00;;;0.90;;
5285;SDS011;2665;53.112;7.358;2023-07-31T05:49:21;2.87;;;1.00;;
5285;SDS011;2665;53.112;7.358;2023-07-31T05:51:47;2.27;;;1.23;;
5285;SDS011;2665;53.112;7.358;2023-07-31T05:54:13;2.00;;;1.10;;
5285;SDS011;2665;53.112;7.358;2023-07-31T05:56:39;2.10;;;1.00;;
5285;SDS011;2665;53.112;7.358;2023-07-31T05:59:05;2.43;;;0.80;;
5285;SDS011;2665;53.112;7.358;2023-07-31T06:01:31;4.07;;;0.90;;
5285;SDS011;2665;53.112;7.358;2023-07-31T06:03:57;2.00;;;0.87;;
5285;SDS011;2665;53.112;7.358;2023-07-31T06:06:23;4.47;;;0.97;;
5285;SDS011;2665;53.112;7.358;2023-07-31T06:08:49;3.30;;;1.00;;
5285;SDS011;2665;53.112;7.358;2023-07-31T06:11:15;1.70;;;0.80;;
5285;SDS011;2665;53.112;7.358;2023-07-31T06:13:42;1.80;;;0.70;;
5285;SDS011;2665;53.112;7.358;2023-07-31T06:16:09;1.80;;;0.70;;
5285;SDS011;2665;53.112;7.358;2023-07-31T06:18:35;1.70;;;0.70;;
5285;SDS011;2665;53.112;7.358;2023-07-31T06:21:01;1.80;;;0.70;;
5285;SDS011;2665;53.112;7.358;2023-07-31T06:23:28;1.60;;;0.60;;
5285;SDS011;2665;53.112;7.358;2023-07-31T06:25:54;3.50;;;0.70;;
5285;SDS011;2665;53.112;7.358;2023-07-31T06:28:20;1.60;;;0.60;;
5285;SDS011;2665;53.112;7.358;2023-07-31T06:30:46;1.80;;;0.60;;
5285;SDS011;2665;53.112;7.358;2023-07-31T06:33:12;3.23;;;0.70;;
5285;SDS011;2665;53.112;7.358;2023-07-31T06:35:38;1.60;;;0.60;;
5285;SDS011;2665;53.112;7.358;2023-07-31T06:38:04;11.03;;;0.70;;
5285;SDS011;2665;53.112;7.358;2023-07-31T06:40:30;1.77;;;0.60;;
5285;SDS011;2665;53.112;7.358;2023-07-31T06:42:56;2.90;;;0.87;;
5285;SDS011;2665;53.112;7.358;2023-07-31T06:45:22;3.80;;;1.30;;
5285;SDS011;2665;53.112;7.358;2023-07-31T06:47:49;4.47;;;1.50;;
5285;SDS011;2665;53.112;7.358;2023-07-31T06:50:15;8.77;;;2.20;;
5285;SDS011;2665;53.112;7.358;2023-07-31T06:52:41;7.20;;;2.40;;
5285;SDS011;2665;53.112;7.358;2023-07-31T06:55:17;4.47;;;2.47;;
5285;SDS011;2665;53.112;7.358;2023-07-31T06:57:44;7.33;;;2.70;;
5285;SDS011;2665;53.112;7.358;2023-07-31T07:00:10;3.80;;;2.30;;
5285;SDS011;2665;53.112;7.358;2023-07-31T07:02:36;4.53;;;2.40;;
5285;SDS011;2665;53.112;7.358;2023-07-31T07:05:02;12.20;;;3.47;;
5285;SDS011;2665;53.112;7.358;2023-07-31T07:07:28;14.87;;;4.70;;
5285;SDS011;2665;53.112;7.358;2023-07-31T07:09:54;13.97;;;4.40;;
5285;SDS011;2665;53.112;7.358;2023-07-31T07:12:20;11.90;;;4.20;;
5285;SDS011;2665;53.112;7.358;2023-07-31T07:14:46;9.10;;;4.10;;
5285;SDS011;2665;53.112;7.358;2023-07-31T07:17:13;5.93;;;3.80;;
5285;SDS011;2665;53.112;7.358;2023-07-31T07:19:40;17.60;;;4.67;;
5285;SDS011;2665;53.112;7.358;2023-07-31T07:22:07;11.27;;;4.23;;
5285;SDS011;2665;53.112;7.358;2023-07-31T07:24:33;9.83;;;3.90;;
5285;SDS011;2665;53.112;7.358;2023-07-31T07:26:59;13.67;;;4.00;;
5285;SDS011;2665;53.112;7.358;2023-07-31T07:29:25;17.60;;;4.83;;
5285;SDS011;2665;53.112;7.358;2023-07-31T07:31:51;13.73;;;4.90;;
5285;SDS011;2665;53.112;7.358;2023-07-31T07:34:17;16.23;;;4.40;;
5285;SDS011;2665;53.112;7.358;2023-07-31T07:36:43;11.33;;;4.77;;
5285;SDS011;2665;53.112;7.358;2023-07-31T07:39:10;11.17;;;5.20;;
5285;SDS011;2665;53.112;7.358;2023-07-31T07:41:36;9.30;;;5.10;;
5285;SDS011;2665;53.112;7.358;2023-07-31T07:44:02;11.07;;;5.50;;
5285;SDS011;2665;53.112;7.358;2023-07-31T07:46:28;10.13;;;5.53;;
5285;SDS011;2665;53.112;7.358;2023-07-31T07:48:54;15.83;;;5.23;;
5285;SDS011;2665;53.112;7.358;2023-07-31T07:51:20;10.10;;;4.87;;
5285;SDS011;2665;53.112;7.358;2023-07-31T07:53:46;9.73;;;4.83;;
5285;SDS011;2665;53.112;7.358;2023-07-31T07:56:12;9.27;;;5.20;;
5285;SDS011;2665;53.112;7.358;2023-07-31T07:58:38;26.60;;;5.30;;
5285;SDS011;2665;53.112;7.358;2023-07-31T08:01:04;9.40;;;4.60;;
5285;SDS011;2665;53.112;7.358;2023-07-31T08:03:30;7.83;;;4.40;;
5285;SDS011;2665;53.112;7.358;2023-07-31T08:06:00;11.00;;;4.07;;
5285;SDS011;2665;53.112;7.358;2023-07-31T08:08:26;12.03;;;4.30;;
5285;SDS011;2665;53.112;7.358;2023-07-31T08:10:52;9.00;;;4.80;;
5285;SDS011;2665;53.112;7.358;2023-07-31T08:13:18;12.20;;;4.33;;
5285;SDS011;2665;53.112;7.358;2023-07-31T08:15:44;7.10;;;3.30;;
5285;SDS011;2665;53.112;7.358;2023-07-31T08:18:11;13.77;;;4.50;;
5285;SDS011;2665;53.112;7.358;2023-07-31T08:20:37;7.80;;;3.70;;
5285;SDS011;2665;53.112;7.358;2023-07-31T08:23:03;8.80;;;3.00;;
5285;SDS011;2665;53.112;7.358;2023-07-31T08:25:29;5.93;;;2.50;;
5285;SDS011;2665;53.112;7.358;2023-07-31T08:27:55;7.60;;;3.30;;
5285;SDS011;2665;53.112;7.358;2023-07-31T08:30:22;6.60;;;2.87;;
5285;SDS011;2665;53.112;7.358;2023-07-31T08:32:48;8.63;;;3.10;;
5285;SDS011;2665;53.112;7.358;2023-07-31T08:35:15;6.70;;;2.80;;
5285;SDS011;2665;53.112;7.358;2023-07-31T08:37:41;6.13;;;3.30;;
5285;SDS011;2665;53.112;7.358;2023-07-31T08:40:07;5.17;;;2.53;;
5285;SDS011;2665;53.112;7.358;2023-07-31T08:42:33;5.13;;;3.27;;
5285;SDS011;2665;53.112;7.358;2023-07-31T08:44:59;10.60;;;2.93;;
5285;SDS011;2665;53.112;7.358;2023-07-31T08:47:25;7.73;;;2.37;;
5285;SDS011;2665;53.112;7.358;2023-07-31T08:49:51;7.10;;;2.20;;
5285;SDS011;2665;53.112;7.358;2023-07-31T08:52:18;4.23;;;2.77;;
5285;SDS011;2665;53.112;7.358;2023-07-31T08:54:44;4.60;;;2.87;;
5285;SDS011;2665;53.112;7.358;2023-07-31T08:57:10;4.67;;;3.17;;
5285;SDS011;2665;53.112;7.358;2023-07-31T08:59:37;5.90;;;2.77;;
5285;SDS011;2665;53.112;7.358;2023-07-31T09:02:05;6.27;;;2.30;;
5285;SDS011;2665;53.112;7.358;2023-07-31T09:04:32;4.67;;;2.83;;
5285;SDS011;2665;53.112;7.358;2023-07-31T09:07:00;7.90;;;3.20;;
5285;SDS011;2665;53.112;7.358;2023-07-31T09:09:26;3.57;;;2.60;;
5285;SDS011;2665;53.112;7.358;2023-07-31T09:11:52;5.10;;;2.90;;
5285;SDS011;2665;53.112;7.358;2023-07-31T09:14:18;6.33;;;2.70;;
5285;SDS011;2665;53.112;7.358;2023-07-31T09:16:52;3.77;;;2.80;;
5285;SDS011;2665;53.112;7.358;2023-07-31T09:19:26;13.23;;;2.67;;
5285;SDS011;2665;53.112;7.358;2023-07-31T09:21:52;5.83;;;2.47;;
5285;SDS011;2665;53.112;7.358;2023-07-31T09:24:25;4.93;;;2.63;;
5285;SDS011;2665;53.112;7.358;2023-07-31T09:26:53;3.13;;;1.90;;
5285;SDS011;2665;53.112;7.358;2023-07-31T09:29:20;3.30;;;1.97;;
5285;SDS011;2665;53.112;7.358;2023-07-31T09:31:46;3.77;;;2.10;;
5285;SDS011;2665;53.112;7.358;2023-07-31T09:34:12;2.57;;;1.83;;
5285;SDS011;2665;53.112;7.358;2023-07-31T09:36:45;6.60;;;2.07;;
5285;SDS011;2665;53.112;7.358;2023-07-31T09:39:12;3.20;;;2.00;;
5285;SDS011;2665;53.112;7.358;2023-07-31T09:41:39;3.47;;;1.90;;
5285;SDS011;2665;53.112;7.358;2023-07-31T09:44:05;2.67;;;1.57;;
5285;SDS011;2665;53.112;7.358;2023-07-31T09:46:32;4.30;;;2.10;;
5285;SDS011;2665;53.112;7.358;2023-07-31T09:49:04;2.60;;;1.60;;
5285;SDS011;2665;53.112;7.358;2023-07-31T09:51:30;3.07;;;1.73;;
5285;SDS011;2665;53.112;7.358;2023-07-31T09:53:56;4.90;;;1.87;;
5285;SDS011;2665;53.112;7.358;2023-07-31T09:56:23;3.93;;;1.60;;
5285;SDS011;2665;53.112;7.358;2023-07-31T09:58:49;3.07;;;1.33;;
5285;SDS011;2665;53.112;7.358;2023-07-31T10:01:15;2.10;;;1.00;;
5285;SDS011;2665;53.112;7.358;2023-07-31T10:03:42;2.90;;;1.90;;
5285;SDS011;2665;53.112;7.358;2023-07-31T10:06:08;2.20;;;1.00;;
5285;SDS011;2665;53.112;7.358;2023-07-31T10:08:35;2.93;;;1.60;;
5285;SDS011;2665;53.112;7.358;2023-07-31T10:11:02;2.10;;;1.30;;
5285;SDS011;2665;53.112;7.358;2023-07-31T10:13:29;2.83;;;1.20;;
5285;SDS011;2665;53.112;7.358;2023-07-31T10:15:59;2.30;;;1.40;;
5285;SDS011;2665;53.112;7.358;2023-07-31T10:18:28;6.93;;;1.70;;
5285;SDS011;2665;53.112;7.358;2023-07-31T10:20:54;3.63;;;1.30;;
5285;SDS011;2665;53.112;7.358;2023-07-31T10:23:21;2.73;;;1.37;;
5285;SDS011;2665;53.112;7.358;2023-07-31T10:25:47;2.07;;;1.07;;
5285;SDS011;2665;53.112;7.358;2023-07-31T10:28:14;2.60;;;0.87;;
5285;SDS011;2665;53.112;7.358;2023-07-31T10:30:40;1.80;;;0.87;;
5285;SDS011;2665;53.112;7.358;2023-07-31T10:33:06;2.40;;;1.00;;
5285;SDS011;2665;53.112;7.358;2023-07-31T10:35:33;1.80;;;0.73;;
5285;SDS011;2665;53.112;7.358;2023-07-31T10:38:11;1.80;;;0.90;;
5285;SDS011;2665;53.112;7.358;2023-07-31T10:40:38;1.90;;;0.97;;
5285;SDS011;2665;53.112;7.358;2023-07-31T10:43:04;1.90;;;0.70;;
5285;SDS011;2665;53.112;7.358;2023-07-31T10:48:02;4.63;;;1.07;;
5285;SDS011;2665;53.112;7.358;2023-07-31T10:50:29;1.70;;;0.90;;
5285;SDS011;2665;53.112;7.358;2023-07-31T10:52:57;1.90;;;0.77;;
5285;SDS011;2665;53.112;7.358;2023-07-31T10:55:31;1.67;;;0.60;;
5285;SDS011;2665;53.112;7.358;2023-07-31T10:58:11;1.90;;;0.80;;
5285;SDS011;2665;53.112;7.358;2023-07-31T11:00:38;1.93;;;0.90;;
5285;SDS011;2665;53.112;7.358;2023-07-31T11:03:05;2.10;;;0.90;;
5285;SDS011;2665;53.112;7.358;2023-07-31T11:08:12;1.70;;;0.70;;
5285;SDS011;2665;53.112;7.358;2023-07-31T11:10:38;1.80;;;0.90;;
5285;SDS011;2665;53.112;7.358;2023-07-31T11:13:04;1.70;;;0.73;;
5285;SDS011;2665;53.112;7.358;2023-07-31T11:15:31;2.03;;;0.80;;
5285;SDS011;2665;53.112;7.358;2023-07-31T11:17:57;2.07;;;0.80;;
5285;SDS011;2665;53.112;7.358;2023-07-31T11:20:26;1.90;;;0.90;;
5285;SDS011;2665;53.112;7.358;2023-07-31T11:22:52;2.97;;;1.10;;
5285;SDS011;2665;53.112;7.358;2023-07-31T11:25:18;1.90;;;0.90;;
5285;SDS011;2665;53.112;7.358;2023-07-31T11:27:45;1.93;;;0.70;;
5285;SDS011;2665;53.112;7.358;2023-07-31T11:30:11;1.90;;;0.90;;
5285;SDS011;2665;53.112;7.358;2023-07-31T11:32:37;1.90;;;0.90;;
5285;SDS011;2665;53.112;7.358;2023-07-31T11:35:03;2.20;;;1.00;;
5285;SDS011;2665;53.112;7.358;2023-07-31T11:37:43;1.80;;;1.00;;
5285;SDS011;2665;53.112;7.358;2023-07-31T11:40:10;1.80;;;0.80;;
5285;SDS011;2665;53.112;7.358;2023-07-31T11:42:37;1.90;;;1.00;;
5285;SDS011;2665;53.112;7.358;2023-07-31T11:45:07;3.07;;;1.00;;
5285;SDS011;2665;53.112;7.358;2023-07-31T11:47:33;1.97;;;1.10;;
5285;SDS011;2665;53.112;7.358;2023-07-31T11:50:00;1.93;;;0.93;;
5285;SDS011;2665;53.112;7.358;2023-07-31T11:52:27;2.07;;;1.00;;
5285;SDS011;2665;53.112;7.358;2023-07-31T11:54:54;2.17;;;1.03;;
5285;SDS011;2665;53.112;7.358;2023-07-31T11:57:21;2.53;;;1.50;;
5285;SDS011;2665;53.112;7.358;2023-07-31T11:59:47;2.40;;;1.20;;
5285;SDS011;2665;53.112;7.358;2023-07-31T12:02:13;2.07;;;1.10;;
5285;SDS011;2665;53.112;7.358;2023-07-31T12:04:39;2.10;;;1.03;;
5285;SDS011;2665;53.112;7.358;2023-07-31T12:07:05;1.87;;;0.90;;
5285;SDS011;2665;53.112;7.358;2023-07-31T12:09:31;2.00;;;1.00;;
5285;SDS011;2665;53.112;7.358;2023-07-31T12:11:58;2.00;;;1.20;;
5285;SDS011;2665;53.112;7.358;2023-07-31T12:14:25;1.90;;;1.13;;
5285;SDS011;2665;53.112;7.358;2023-07-31T12:16:55;1.80;;;0.90;;
5285;SDS011;2665;53.112;7.358;2023-07-31T12:19:21;1.90;;;0.90;;
5285;SDS011;2665;53.112;7.358;2023-07-31T12:21:48;2.20;;;1.07;;
5285;SDS011;2665;53.112;7.358;2023-07-31T12:24:13;2.00;;;1.00;;
5285;SDS011;2665;53.112;7.358;2023-07-31T12:26:39;1.70;;;0.80;;
5285;SDS011;2665;53.112;7.358;2023-07-31T12:29:06;1.73;;;0.70;;
5285;SDS011;2665;53.112;7.358;2023-07-31T12:31:33;2.77;;;0.80;;
5285;SDS011;2665;53.112;7.358;2023-07-31T12:33:59;2.00;;;0.90;;
5285;SDS011;2665;53.112;7.358;2023-07-31T12:36:27;1.90;;;0.80;;
5285;SDS011;2665;53.112;7.358;2023-07-31T12:38:55;1.90;;;0.80;;
5285;SDS011;2665;53.112;7.358;2023-07-31T12:41:23;1.70;;;0.60;;
5285;SDS011;2665;53.112;7.358;2023-07-31T12:43:49;1.70;;;0.53;;
5285;SDS011;2665;53.112;7.358;2023-07-31T12:46:15;1.53;;;0.50;;
5285;SDS011;2665;53.112;7.358;2023-07-31T12:48:42;1.70;;;0.60;;
5285;SDS011;2665;53.112;7.358;2023-07-31T12:51:08;1.60;;;0.53;;
5285;SDS011;2665;53.112;7.358;2023-07-31T12:53:34;1.50;;;0.40;;
5285;SDS011;2665;53.112;7.358;2023-07-31T12:56:00;1.57;;;0.50;;
5285;SDS011;2665;53.112;7.358;2023-07-31T12:58:26;1.50;;;0.40;;
5285;SDS011;2665;53.112;7.358;2023-07-31T13:00:52;1.50;;;0.50;;
5285;SDS011;2665;53.112;7.358;2023-07-31T13:03:18;1.50;;;0.40;;
5285;SDS011;2665;53.112;7.358;2023-07-31T13:05:44;1.40;;;0.40;;
5285;SDS011;2665;53.112;7.358;2023-07-31T13:08:10;1.50;;;0.40;;
5285;SDS011;2665;53.112;7.358;2023-07-31T13:10:37;1.50;;;0.50;;
5285;SDS011;2665;53.112;7.358;2023-07-31T13:13:03;1.50;;;0.50;;
5285;SDS011;2665;53.112;7.358;2023-07-31T13:15:29;1.87;;;0.53;;
5285;SDS011;2665;53.112;7.358;2023-07-31T13:17:55;1.60;;;0.50;;
5285;SDS011;2665;53.112;7.358;2023-07-31T13:20:21;1.60;;;0.50;;
5285;SDS011;2665;53.112;7.358;2023-07-31T13:22:47;1.80;;;0.60;;
5285;SDS011;2665;53.112;7.358;2023-07-31T13:25:13;1.60;;;0.60;;
5285;SDS011;2665;53.112;7.358;2023-07-31T13:27:39;1.50;;;0.50;;
5285;SDS011;2665;53.112;7.358;2023-07-31T13:30:05;2.43;;;0.50;;
5285;SDS011;2665;53.112;7.358;2023-07-31T13:32:31;1.60;;;0.47;;
5285;SDS011;2665;53.112;7.358;2023-07-31T13:34:57;1.60;;;0.57;;
5285;SDS011;2665;53.112;7.358;2023-07-31T13:37:24;1.60;;;0.60;;
5285;SDS011;2665;53.112;7.358;2023-07-31T13:39:50;1.50;;;0.50;;
5285;SDS011;2665;53.112;7.358;2023-07-31T13:42:16;1.80;;;0.70;;
5285;SDS011;2665;53.112;7.358;2023-07-31T13:44:42;1.60;;;0.50;;
5285;SDS011;2665;53.112;7.358;2023-07-31T13:47:08;1.70;;;0.60;;
5285;SDS011;2665;53.112;7.358;2023-07-31T13:49:34;1.53;;;0.50;;
5285;SDS011;2665;53.112;7.358;2023-07-31T13:52:01;1.60;;;0.50;;
5285;SDS011;2665;53.112;7.358;2023-07-31T13:54:27;1.53;;;0.50;;
5285;SDS011;2665;53.112;7.358;2023-07-31T13:56:53;2.00;;;0.53;;
5285;SDS011;2665;53.112;7.358;2023-07-31T13:59:19;1.60;;;0.67;;
5285;SDS011;2665;53.112;7.358;2023-07-31T14:01:45;1.90;;;0.73;;
5285;SDS011;2665;53.112;7.358;2023-07-31T14:04:11;1.80;;;0.83;;
5285;SDS011;2665;53.112;7.358;2023-07-31T14:06:37;2.20;;;0.80;;
5285;SDS011;2665;53.112;7.358;2023-07-31T14:09:04;2.43;;;0.83;;
5285;SDS011;2665;53.112;7.358;2023-07-31T14:11:30;3.13;;;1.07;;
5285;SDS011;2665;53.112;7.358;2023-07-31T14:13:56;2.83;;;1.00;;
5285;SDS011;2665;53.112;7.358;2023-07-31T14:16:23;1.97;;;0.80;;
5285;SDS011;2665;53.112;7.358;2023-07-31T14:18:49;1.97;;;0.70;;
5285;SDS011;2665;53.112;7.358;2023-07-31T14:21:15;1.90;;;0.90;;
5285;SDS011;2665;53.112;7.358;2023-07-31T14:23:41;2.73;;;1.13;;
5285;SDS011;2665;53.112;7.358;2023-07-31T14:26:07;3.03;;;1.17;;
5285;SDS011;2665;53.112;7.358;2023-07-31T14:28:33;3.03;;;1.20;;
5285;SDS011;2665;53.112;7.358;2023-07-31T14:30:59;3.80;;;0.90;;
5285;SDS011;2665;53.112;7.358;2023-07-31T14:33:25;2.57;;;1.10;;
5285;SDS011;2665;53.112;7.358;2023-07-31T14:35:51;2.10;;;0.87;;
5285;SDS011;2665;53.112;7.358;2023-07-31T14:38:18;3.00;;;1.07;;
5285;SDS011;2665;53.112;7.358;2023-07-31T14:40:44;2.17;;;1.07;;
5285;SDS011;2665;53.112;7.358;2023-07-31T14:43:10;2.70;;;1.40;;
5285;SDS011;2665;53.112;7.358;2023-07-31T14:45:36;2.50;;;1.40;;
5285;SDS011;2665;53.112;7.358;2023-07-31T14:48:02;2.60;;;1.13;;
5285;SDS011;2665;53.112;7.358;2023-07-31T14:50:28;3.50;;;1.40;;
5285;SDS011;2665;53.112;7.358;2023-07-31T14:52:54;3.77;;;1.50;;
5285;SDS011;2665;53.112;7.358;2023-07-31T14:55:20;5.43;;;1.23;;
5285;SDS011;2665;53.112;7.358;2023-07-31T14:57:46;8.77;;;2.07;;
5285;SDS011;2665;53.112;7.358;2023-07-31T15:00:12;2.67;;;1.80;;
5285;SDS011;2665;53.112;7.358;2023-07-31T15:02:38;6.73;;;1.23;;
5285;SDS011;2665;53.112;7.358;2023-07-31T15:05:04;2.43;;;1.33;;
5285;SDS011;2665;53.112;7.358;2023-07-31T15:07:30;2.80;;;1.57;;
5285;SDS011;2665;53.112;7.358;2023-07-31T15:09:56;4.60;;;1.67;;
5285;SDS011;2665;53.112;7.358;2023-07-31T15:12:22;4.20;;;1.80;;
5285;SDS011;2665;53.112;7.358;2023-07-31T15:14:49;2.97;;;1.43;;
5285;SDS011;2665;53.112;7.358;2023-07-31T15:17:16;2.60;;;1.27;;
5285;SDS011;2665;53.112;7.358;2023-07-31T15:19:42;6.40;;;1.40;;
5285;SDS011;2665;53.112;7.358;2023-07-31T15:22:08;2.50;;;1.30;;
5285;SDS011;2665;53.112;7.358;2023-07-31T15:24:34;4.60;;;1.67;;
5285;SDS011;2665;53.112;7.358;2023-07-31T15:27:00;4.87;;;1.40;;